createdAt,value
2018-08-30T00:01:42.502Z,97734.00
2018-08-30T00:05:44.667Z,97738.00
2018-08-30T00:09:46.844Z,97737.00
2018-08-30T00:13:48.976Z,97738.00
2018-08-30T00:17:51.166Z,97728.00
2018-08-30T00:21:53.362Z,97739.00
2018-08-30T00:25:55.855Z,97749.00
2018-08-30T00:29:58.111Z,97748.00
2018-08-30T00:34:00.295Z,97749.00
2018-08-30T00:38:02.464Z,97750.00
2018-08-30T00:42:04.638Z,97757.00
2018-08-30T00:46:06.843Z,97770.00
2018-08-30T00:50:09.022Z,97769.00
2018-08-30T00:54:11.161Z,97786.00
2018-08-30T00:58:13.314Z,97790.00
2018-08-30T01:02:15.471Z,97805.00
2018-08-30T01:06:17.648Z,97787.00
2018-08-30T01:10:19.858Z,97786.00
2018-08-30T01:14:21.999Z,97789.00
2018-08-30T01:18:24.183Z,97793.00
2018-08-30T01:22:26.346Z,97820.00
2018-08-30T01:26:28.570Z,97826.00
2018-08-30T01:30:30.762Z,97840.00
2018-08-30T01:34:32.931Z,97832.00
2018-08-30T01:38:35.150Z,97835.00
2018-08-30T01:42:37.272Z,97841.00
2018-08-30T01:46:39.447Z,97826.00
2018-08-30T01:50:41.685Z,97833.00
2018-08-30T01:54:43.827Z,97828.00
2018-08-30T01:58:45.994Z,97839.00
2018-08-30T02:02:48.167Z,97848.00
2018-08-30T02:06:50.319Z,97863.00
2018-08-30T02:10:52.491Z,97858.00
2018-08-30T02:14:54.642Z,97862.00
2018-08-30T02:18:56.963Z,97865.00
2018-08-30T02:22:59.099Z,97862.00
2018-08-30T02:27:01.257Z,97862.00
2018-08-30T02:31:03.436Z,97863.00
2018-08-30T02:35:06.060Z,97863.00
2018-08-30T02:39:09.105Z,97866.00
2018-08-30T02:43:11.251Z,97863.00
2018-08-30T02:47:13.418Z,97860.00
2018-08-30T02:51:15.542Z,97864.00
2018-08-30T02:55:17.699Z,97878.00
2018-08-30T02:59:19.899Z,97871.00
2018-08-30T03:03:22.105Z,97870.00
2018-08-30T03:07:24.283Z,97879.00
2018-08-30T03:11:26.472Z,97886.00
2018-08-30T03:15:28.638Z,97888.00
2018-08-30T03:19:30.849Z,97898.00
2018-08-30T03:23:33.607Z,97913.00
2018-08-30T03:27:35.785Z,97912.00
2018-08-30T03:31:37.926Z,97915.00
2018-08-30T03:35:40.088Z,97918.00
2018-08-30T03:39:42.234Z,97930.00
2018-08-30T03:43:44.414Z,97928.00
2018-08-30T03:47:46.853Z,97927.00
2018-08-30T03:51:49.026Z,97920.00
2018-08-30T03:55:51.166Z,97935.00
2018-08-30T03:59:53.308Z,97937.00
2018-08-30T04:03:55.445Z,97937.00
2018-08-30T04:07:57.654Z,97949.00
2018-08-30T04:12:00.239Z,97952.00
2018-08-30T04:16:02.450Z,97965.00
2018-08-30T04:20:05.063Z,97965.00
2018-08-30T04:24:08.157Z,97959.00
2018-08-30T04:28:10.333Z,97967.00
2018-08-30T04:32:12.507Z,97967.00
2018-08-30T04:36:14.722Z,97979.00
2018-08-30T04:40:17.611Z,97979.00
2018-08-30T04:44:20.225Z,97986.00
2018-08-30T04:48:22.811Z,97992.00
2018-08-30T04:52:25.001Z,97998.00
2018-08-30T04:56:27.553Z,97996.00
2018-08-30T05:00:29.694Z,98008.00
2018-08-30T05:04:31.975Z,98014.00
2018-08-30T05:08:34.298Z,98023.00
2018-08-30T05:12:36.501Z,98022.00
2018-08-30T05:16:38.759Z,98024.00
2018-08-30T05:20:41.987Z,98014.00
2018-08-30T05:24:44.823Z,98026.00
2018-08-30T05:28:46.980Z,98029.00
2018-08-30T05:32:49.148Z,98033.00
2018-08-30T05:36:51.866Z,98035.00
2018-08-30T05:40:54.815Z,98041.00
2018-08-30T05:44:57.334Z,98044.00
2018-08-30T05:49:00.558Z,98039.00
2018-08-30T05:53:03.356Z,98058.00
2018-08-30T05:57:05.595Z,98053.00
2018-08-30T06:01:07.875Z,98059.00
2018-08-30T06:05:10.950Z,98063.00
2018-08-30T06:09:13.105Z,98073.00
2018-08-30T06:13:15.269Z,98063.00
2018-08-30T06:17:17.508Z,98076.00
2018-08-30T06:21:19.639Z,98075.00
2018-08-30T06:25:21.787Z,98072.00
2018-08-30T06:29:24.222Z,98075.00
2018-08-30T06:33:26.355Z,98088.00
2018-08-30T06:37:28.513Z,98089.00
2018-08-30T06:41:31.374Z,98090.00
2018-08-30T06:45:34.094Z,98098.00
2018-08-30T06:49:36.248Z,98095.00
2018-08-30T06:53:38.651Z,98101.00
2018-08-30T06:57:41.101Z,98102.00
2018-08-30T07:01:43.243Z,98108.00
2018-08-30T07:05:46.314Z,98110.00
2018-08-30T07:09:48.484Z,98119.00
2018-08-30T07:13:50.666Z,98118.00
2018-08-30T07:17:52.814Z,98127.00
2018-08-30T07:23:24.540Z,98134.00
2018-08-30T07:27:27.300Z,98151.00
2018-08-30T07:31:30.220Z,98146.00
2018-08-30T07:35:32.391Z,98156.00
2018-08-30T07:39:36.760Z,98156.00
2018-08-30T07:43:39.021Z,98165.00
2018-08-30T07:47:41.248Z,98175.00
2018-08-30T07:51:43.461Z,98179.00
2018-08-30T07:55:45.720Z,98164.00
2018-08-30T07:59:48.698Z,98181.00
2018-08-30T08:03:50.852Z,98179.00
2018-08-30T08:07:53.443Z,98187.00
2018-08-30T08:11:56.753Z,98207.00
2018-08-30T08:15:58.987Z,98201.00
2018-08-30T08:20:02.375Z,98217.00
2018-08-30T08:24:04.564Z,98219.00
2018-08-30T08:28:06.791Z,98226.00
2018-08-30T08:32:08.942Z,98226.00
2018-08-30T08:36:11.490Z,98230.00
2018-08-30T08:40:13.691Z,98240.00
2018-08-30T08:44:16.316Z,98239.00
2018-08-30T08:48:18.749Z,98241.00
2018-08-30T08:52:20.931Z,98241.00
2018-08-30T08:56:23.702Z,98250.00
2018-08-30T09:00:26.215Z,98253.00
2018-08-30T09:04:29.457Z,98261.00
2018-08-30T09:08:31.738Z,98258.00
2018-08-30T09:12:34.266Z,98259.00
2018-08-30T09:16:36.500Z,98250.00
2018-08-30T09:20:38.689Z,98255.00
2018-08-30T09:24:40.863Z,98257.00
2018-08-30T09:28:44.002Z,98259.00
2018-08-30T09:32:46.218Z,98261.00
2018-08-30T09:36:48.451Z,98267.00
2018-08-30T09:40:50.703Z,98270.00
2018-08-30T09:44:53.591Z,98268.00
2018-08-30T09:48:56.778Z,98266.00
2018-08-30T09:52:59.359Z,98275.00
2018-08-30T09:57:01.763Z,98287.00
2018-08-30T10:01:10.154Z,98280.00
2018-08-30T10:05:12.424Z,98280.00
2018-08-30T10:09:14.628Z,98291.00
2018-08-30T10:13:16.863Z,98300.00
2018-08-30T10:17:19.012Z,98298.00
2018-08-30T10:21:22.601Z,98304.00
2018-08-30T10:25:24.846Z,98306.00
2018-08-30T10:29:27.262Z,98303.00
2018-08-30T10:33:29.924Z,98304.00
2018-08-30T10:37:32.149Z,98303.00
2018-08-30T10:41:34.448Z,98302.00
2018-08-30T10:45:36.652Z,98294.00
2018-08-30T10:49:39.061Z,98285.00
2018-08-30T10:53:41.498Z,98285.00
2018-08-30T10:57:44.649Z,98279.00
2018-08-30T11:01:46.919Z,98280.00
2018-08-30T11:05:49.305Z,98283.00
2018-08-30T11:09:52.343Z,98286.00
2018-08-30T11:13:54.740Z,98281.00
2018-08-30T11:17:57.652Z,98282.00
2018-08-30T11:21:59.878Z,98280.00
2018-08-30T11:26:02.066Z,98266.00
2018-08-30T11:30:04.981Z,98285.00
2018-08-30T11:34:07.214Z,98268.00
2018-08-30T11:38:09.564Z,98272.00
2018-08-30T11:42:11.752Z,98280.00
2018-08-30T11:46:15.733Z,98244.00
2018-08-30T11:50:17.968Z,98280.00
2018-08-30T11:54:20.312Z,98289.00
2018-08-30T11:58:23.281Z,98286.00
2018-08-30T12:02:25.778Z,98288.00
2018-08-30T12:06:28.576Z,98291.00
2018-08-30T12:10:31.043Z,98299.00
2018-08-30T12:14:33.109Z,98319.00
2018-08-30T12:18:35.448Z,98318.00
2018-08-30T12:22:37.834Z,98325.00
2018-08-30T12:26:42.380Z,98316.00
2018-08-30T12:30:45.103Z,98325.00
2018-08-30T12:34:48.189Z,98320.00
2018-08-30T12:38:50.413Z,98316.00
2018-08-30T12:42:53.750Z,98322.00
2018-08-30T12:46:55.893Z,98317.00
2018-08-30T12:50:58.171Z,98318.00
2018-08-30T12:55:00.760Z,98320.00
2018-08-30T12:59:08.605Z,98319.00
2018-08-30T13:03:10.859Z,98326.00
2018-08-30T13:07:13.236Z,98312.00
2018-08-30T13:11:15.501Z,98327.00
2018-08-30T13:15:17.820Z,98328.00
2018-08-30T13:19:21.383Z,98334.00
2018-08-30T13:23:23.611Z,98335.00
2018-08-30T13:27:26.262Z,98341.00
2018-08-30T13:31:28.557Z,98338.00
2018-08-30T13:35:30.725Z,98337.00
2018-08-30T13:39:33.167Z,98341.00
2018-08-30T13:43:35.860Z,98330.00
2018-08-30T13:47:38.333Z,98328.00
2018-08-30T13:51:41.576Z,98320.00
2018-08-30T13:55:43.943Z,98325.00
2018-08-30T13:59:47.218Z,98332.00
2018-08-30T14:03:49.134Z,98336.00
2018-08-30T14:07:51.175Z,98335.00
2018-08-30T14:11:53.591Z,98335.00
2018-08-30T14:15:55.498Z,98335.00
2018-08-30T14:19:59.875Z,98335.00
2018-08-30T14:24:14.504Z,98334.00
2018-08-30T14:28:26.077Z,98334.00
2018-08-30T14:32:35.313Z,98326.00
2018-08-30T14:36:55.002Z,98335.00
2018-08-30T14:41:07.526Z,98330.00
2018-08-30T14:45:18.647Z,98307.00
2018-08-30T14:49:21.736Z,98324.00
2018-08-30T14:53:24.467Z,98325.00
2018-08-30T14:57:27.319Z,98327.00
2018-08-30T15:01:30.614Z,98332.00
2018-08-30T15:05:33.192Z,98335.00
2018-08-30T15:09:35.148Z,98335.00
2018-08-30T15:13:37.494Z,98330.00
2018-08-30T15:17:39.950Z,98331.00
2018-08-30T15:21:42.570Z,98328.00
2018-08-30T15:25:44.798Z,98335.00
2018-08-30T15:29:47.127Z,98338.00
2018-08-30T15:33:49.732Z,98330.00
2018-08-30T15:37:51.987Z,98337.00
2018-08-30T15:41:54.170Z,98335.00
2018-08-30T15:45:56.314Z,98330.00
2018-08-30T15:49:58.461Z,98331.00
2018-08-30T15:54:00.739Z,98335.00
2018-08-30T15:58:02.960Z,98336.00
2018-08-30T16:02:05.358Z,98331.00
2018-08-30T16:06:07.564Z,98326.00
2018-08-30T16:10:09.808Z,98330.00
2018-08-30T16:14:12.038Z,98325.00
2018-08-30T16:18:14.264Z,98323.00
2018-08-30T16:22:16.463Z,98320.00
2018-08-30T16:26:19.718Z,98327.00
2018-08-30T16:30:23.195Z,98323.00
2018-08-30T16:34:26.525Z,98326.00
2018-08-30T16:38:29.969Z,98319.00
2018-08-30T16:42:33.028Z,98321.00
2018-08-30T16:46:35.842Z,98322.00
2018-08-30T16:50:38.144Z,98327.00
2018-08-30T16:54:40.413Z,98333.00
2018-08-30T16:58:42.589Z,98329.00
2018-08-30T17:02:44.808Z,98331.00
2018-08-30T17:06:47.172Z,98341.00
2018-08-30T17:10:49.367Z,98341.00
2018-08-30T17:14:51.647Z,98343.00
2018-08-30T17:18:57.376Z,98350.00
2018-08-30T17:22:59.589Z,98346.00
2018-08-30T17:27:01.822Z,98345.00
2018-08-30T17:31:04.247Z,98348.00
2018-08-30T17:35:06.716Z,98349.00
2018-08-30T17:39:10.031Z,98346.00
2018-08-30T17:43:12.313Z,98358.00
2018-08-30T17:47:14.584Z,98358.00
2018-08-30T17:51:16.903Z,98355.00
2018-08-30T17:55:19.323Z,98360.00
2018-08-30T17:59:22.220Z,98363.00
2018-08-30T18:03:24.545Z,98368.00
2018-08-30T18:07:26.853Z,98370.00
2018-08-30T18:11:29.243Z,98371.00
2018-08-30T18:15:31.468Z,98368.00
2018-08-30T18:19:33.715Z,98374.00
2018-08-30T18:23:35.942Z,98384.00
2018-08-30T18:27:38.254Z,98386.00
2018-08-30T18:31:40.504Z,98388.00
2018-08-30T18:35:42.691Z,98398.00
2018-08-30T18:39:44.909Z,98403.00
2018-08-30T18:43:47.467Z,98401.00
2018-08-30T18:47:49.732Z,98410.00
2018-08-30T18:51:52.069Z,98406.00
2018-08-30T18:55:54.375Z,98407.00
2018-08-30T18:59:56.557Z,98403.00
2018-08-30T19:03:59.011Z,98414.00
2018-08-30T19:08:02.085Z,98419.00
2018-08-30T19:12:05.036Z,98421.00
2018-08-30T19:16:12.931Z,98421.00
2018-08-30T19:20:15.375Z,98413.00
2018-08-30T19:24:23.553Z,98424.00
2018-08-30T19:28:26.109Z,98433.00
2018-08-30T19:32:28.733Z,98432.00
2018-08-30T19:36:31.994Z,98431.00
2018-08-30T19:40:40.559Z,98439.00
2018-08-30T19:44:43.269Z,98440.00
2018-08-30T19:48:46.661Z,98441.00
2018-08-30T19:52:48.928Z,98447.00
2018-08-30T19:56:51.117Z,98448.00
2018-08-30T20:00:53.325Z,98451.00
2018-08-30T20:04:55.502Z,98455.00
2018-08-30T20:08:57.737Z,98447.00
2018-08-30T20:13:00.975Z,98457.00
2018-08-30T20:17:03.124Z,98452.00
2018-08-30T20:21:05.351Z,98444.00
2018-08-30T20:25:07.579Z,98445.00
2018-08-30T20:29:09.751Z,98448.00
2018-08-30T20:33:12.020Z,98448.00
2018-08-30T20:37:14.238Z,98434.00
2018-08-30T20:41:16.492Z,98432.00
2018-08-30T20:45:18.667Z,98432.00
2018-08-30T20:49:21.855Z,98438.00
2018-08-30T20:53:24.119Z,98427.00
2018-08-30T20:57:26.407Z,98436.00
2018-08-30T21:01:28.575Z,98427.00
2018-08-30T21:05:30.775Z,98437.00
2018-08-30T21:09:32.955Z,98434.00
2018-08-30T21:13:35.995Z,98432.00
2018-08-30T21:17:38.279Z,98436.00
2018-08-30T21:21:40.439Z,98436.00
2018-08-30T21:25:42.638Z,98429.00
2018-08-30T21:29:44.831Z,98431.00
2018-08-30T21:33:47.054Z,98430.00
2018-08-30T21:37:49.233Z,98424.00
2018-08-30T21:41:51.412Z,98429.00
2018-08-30T21:45:53.667Z,98421.00
2018-08-30T21:49:55.829Z,98431.00
2018-08-30T21:53:57.978Z,98435.00
2018-08-30T21:58:00.113Z,98435.00
2018-08-30T22:02:02.280Z,98441.00
2018-08-30T22:06:04.481Z,98438.00
2018-08-30T22:10:06.669Z,98437.00
2018-08-30T22:14:09.986Z,98442.00
2018-08-30T22:18:12.122Z,98447.00
2018-08-30T22:22:14.309Z,98449.00
2018-08-30T22:26:16.458Z,98439.00
2018-08-30T22:30:18.635Z,98445.00
2018-08-30T22:34:20.801Z,98442.00
2018-08-30T22:38:23.007Z,98450.00
2018-08-30T22:42:25.123Z,98450.00
2018-08-30T22:46:27.259Z,98437.00
2018-08-30T22:50:30.547Z,98439.00
2018-08-30T22:54:32.746Z,98445.00
2018-08-30T22:58:35.139Z,98448.00
2018-08-30T23:02:37.313Z,98438.00
2018-08-30T23:06:39.463Z,98445.00
2018-08-30T23:10:41.750Z,98439.00
2018-08-30T23:14:43.963Z,98437.00
2018-08-30T23:18:46.106Z,98434.00
2018-08-30T23:22:48.251Z,98430.00
2018-08-30T23:26:50.495Z,98431.00
2018-08-30T23:30:52.647Z,98434.00
2018-08-30T23:34:54.963Z,98428.00
2018-08-30T23:38:57.214Z,98421.00
2018-08-30T23:42:59.875Z,98426.00
2018-08-30T23:47:02.308Z,98420.00
2018-08-30T23:51:04.689Z,98417.00
2018-08-30T23:55:06.870Z,98420.00
2018-08-30T23:59:20.561Z,98420.00
